Flight Track Log - Related Links

Times and Time Zones

All times are in EDT time to prevent confusion due to time zone crossing. See the C-GYOA flight status page for this flight to view local times or setup timezone preferences in your user account.

Time Position Orientation Groundspeed Altitude Reporting Facility
EDT Latitude Longitude Course Direction KTS MPH feet Rate Location/Type
Sun 07:24:43 PM 42.9333 -78.7167 144° Southeast 89 102 1,100  Level Buffalo TRACON
Sun 07:25:37 PM 42.9167 -78.7000 144° Southeast 85 98 1,900 842 Climbing Buffalo TRACON
Sun 07:26:37 PM 42.9000 -78.7000 180° South 84 97 2,700 750 Climbing Buffalo TRACON
Sun 07:27:37 PM 42.8833 -78.6833 144° Southeast 96 110 3,400 688 Climbing Buffalo TRACON
Sun 07:28:13 PM 42.8631 -78.6731 160° South 92 106 3,800 735 Climbing Cleveland Center
Sun 07:29:15 PM 42.8397 -78.6600 158° South 87 100 4,600 726 Climbing Cleveland Center
Sun 07:30:17 PM 42.8169 -78.6461 156° South 87 100 5,300 677 Climbing Cleveland Center
Sun 07:31:19 PM 42.8331 -78.6122 57° Northeast 106 122 6,000 629 Climbing Cleveland Center
Sun 07:32:21 PM 42.8503 -78.5800 54° Northeast 100 115 6,600 629 Climbing Cleveland Center
Sun 07:33:23 PM 42.8678 -78.5483 53° Northeast 100 115 7,300 581 Climbing Cleveland Center
Sun 07:34:25 PM 42.8831 -78.5203 53° Northeast 98 113 7,800 484 Climbing Cleveland Center
Sun 07:35:27 PM 42.9011 -78.4886 52° Northeast 100 115 8,300 484 Climbing Cleveland Center
Sun 07:36:29 PM 42.9217 -78.4581 47° Northeast 105 121 8,800 387 Climbing Cleveland Center
Sun 07:37:31 PM 42.9428 -78.4244 49° Northeast 115 132 9,100 124 Climbing Cleveland Center
Sun 07:38:06 PM 42.9561 -78.3994 54° Northeast 139 160 9,000  Descending Cleveland Center
Sun 07:38:42 PM 42.9728 -78.3722 50° Northeast 151 174 9,100 62 Climbing Cleveland Center
Sun 07:39:43 PM 42.9883 -78.3244 66° East 144 166 9,100  Level Cleveland Center
Sun 07:40:37 PM 42.9989 -78.2725 74° East 150 173 9,100  Level Cleveland Center
Sun 07:40:43 PM 43.0008 -78.2700 43° Northeast 148 170 9,100  Level Cleveland Center
Sun 07:41:39 PM 43.0142 -78.2219 69° East 145 167 9,100  Level Cleveland Center
Sun 07:41:44 PM 43.0147 -78.2189 76° East 144 166 9,100  Level Cleveland Center
Sun 07:42:41 PM 43.0258 -78.1675 74° East 149 171 9,100  Level Cleveland Center
Sun 07:42:44 PM 43.0269 -78.1642 65° Northeast 149 171 9,100  Level Cleveland Center
Sun 07:43:51 PM 43.0386 -78.1008 76° East 146 168 9,100 -50 Level Cleveland Center
Sun 07:44:45 PM 43.0431 -78.0581 82° East 149 171 9,000 -109 Descending Cleveland Center
Sun 07:44:46 PM 43.0450 -78.0561 36° Northeast 146 168 9,000  Level Cleveland Center
Sun 07:45:47 PM 43.0531 -78.0058 78° East 144 166 9,000  Level Cleveland Center
Sun 07:46:47 PM 43.0678 -77.9436 72° East 146 168 9,000  Level Cleveland Center
Sun 07:46:49 PM 43.0644 -77.9511 239° Southwest 148 170 9,000 94 Level Cleveland Center
Sun 07:47:51 PM 43.0775 -77.8878 74° East 146 168 9,100  Climbing Cleveland Center
Sun 07:48:53 PM 43.0869 -77.8369 76° East 142 163 9,000 -51 Descending Cleveland Center
Sun 07:49:49 PM 43.0944 -77.7883 78° East 139 160 9,000  Level Cleveland Center
Sun 07:49:55 PM 43.0944 -77.7844 90° East 141 162 9,000  Level Cleveland Center
Sun 07:50:49 PM 43.1061 -77.7364 72° East 140 161 9,000  Level Cleveland Center
Sun 07:50:57 PM 43.1044 -77.7333 127° Southeast 140 161 9,000  Level Cleveland Center
Sun 07:51:50 PM 43.1125 -77.6919 75° East 137 158 9,000  Level Cleveland Center
Sun 07:51:59 PM 43.1142 -77.6825 76° East 139 160 9,000  Level Cleveland Center
Sun 07:52:45 PM 43.1217 -77.6422 76° East 138 159 9,000  Level Cleveland Center
Sun 07:53:01 PM 43.1206 -77.6300 97° East 139 160 9,000  Level Cleveland Center
Sun 07:53:45 PM 43.1194 -77.5836 92° East 134 154 9,000  Level Cleveland Center
Sun 07:54:03 PM 43.1186 -77.5778 101° East 138 159 9,000  Level Cleveland Center
Sun 07:54:46 PM 43.1203 -77.5317 87° East 139 160 9,000  Level Cleveland Center
Sun 07:55:05 PM 43.1203 -77.5150 90° East 138 159 9,000  Level Cleveland Center
Sun 07:55:46 PM 43.1214 -77.4797 88° East 138 159 9,000  Level Cleveland Center
Sun 07:56:07 PM 43.1211 -77.4631 91° East 137 158 9,000  Level Cleveland Center
Sun 07:56:47 PM 43.1247 -77.4256 82° East 139 160 9,000  Level Cleveland Center
Sun 07:57:09 PM 43.1247 -77.4103 90° East 138 159 9,000  Level Cleveland Center
Sun 07:57:48 PM 43.1275 -77.3742 84° East 137 158 9,000  Level Cleveland Center
Sun 07:58:11 PM 43.1261 -77.3581 97° East 138 159 9,000  Level Cleveland Center
Sun 07:59:13 PM 43.1269 -77.3050 89° East 139 160 9,000  Level Cleveland Center
Sun 07:59:49 PM 43.1300 -77.2647 84° East 139 160 9,000  Level Cleveland Center
Sun 08:00:16 PM 43.1300 -77.2419 90° East 139 160 9,000 100 Level Cleveland Center
Sun 08:00:49 PM 43.1308 -77.2131 88° East 140 161 9,100  Climbing Cleveland Center
Sun 08:01:18 PM 43.1297 -77.1897 94° East 138 159 9,000 -98 Descending Cleveland Center
Sun 08:01:50 PM 43.1317 -77.1611 85° East 140 161 9,000  Level Cleveland Center
Sun 08:02:20 PM 43.1319 -77.1358 89° East 141 162 9,000  Level Cleveland Center
Sun 08:03:22 PM 43.1333 -77.0828 88° East 141 162 9,000  Level Cleveland Center
Sun 08:04:24 PM 43.1342 -77.0292 89° East 141 162 9,000  Level Cleveland Center
Sun 08:05:26 PM 43.1361 -76.9761 87° East 141 162 9,000  Level Cleveland Center
Sun 08:06:28 PM 43.1378 -76.9114 88° East 141 162 9,000  Level Cleveland Center
Sun 08:07:31 PM 43.1408 -76.8583 85° East 141 162 9,000  Level Cleveland Center
Sun 08:08:33 PM 43.1428 -76.8047 87° East 141 162 9,000  Level Cleveland Center
Sun 08:09:35 PM 43.1458 -76.7517 85° East 141 162 9,000  Level Cleveland Center
Sun 08:10:37 PM 43.1661 -76.7069 58° Northeast 140 161 9,000  Level Cleveland Center
Sun 08:11:39 PM 43.1947 -76.6567 52° Northeast 142 163 9,000  Level Cleveland Center
Sun 08:12:41 PM 43.2181 -76.6133 54° Northeast 141 162 9,000  Level Cleveland Center
Sun 08:13:43 PM 43.2394 -76.5672 58° Northeast 144 166 9,000  Level Cleveland Center
Sun 08:14:45 PM 43.2611 -76.5217 57° Northeast 144 166 9,000  Level Cleveland Center
Sun 08:15:47 PM 43.2833 -76.4767 56° Northeast 143 165 9,000  Level Cleveland Center
Sun 08:16:49 PM 43.3064 -76.4319 55° Northeast 144 166 9,000  Level Cleveland Center
Sun 08:17:51 PM 43.3328 -76.3767 57° Northeast 145 167 9,000  Level Cleveland Center
Sun 08:18:27 PM 43.3444 -76.3597 47° Northeast 147 169 9,000  Level Boston Center
Sun 08:18:52 PM 43.3567 -76.3294 61° Northeast 144 166 9,000  Level Boston Center
Sun 08:19:28 PM 43.3653 -76.3142 52° Northeast 144 166 9,000  Level Boston Center
Sun 08:19:53 PM 43.3792 -76.2839 58° Northeast 142 163 9,000  Level Boston Center
Sun 08:20:30 PM 43.3928 -76.2586 53° Northeast 147 169 9,000  Level Boston Center
Sun 08:20:54 PM 43.4000 -76.2378 64° Northeast 143 165 9,000  Level Boston Center
Sun 08:21:18 PM 43.4031 -76.2064 82° East 144 166 9,000  Level Boston Center
Sun 08:21:28 PM 43.4153 -76.2133 338° Northwest 146 168 9,000  Level Boston Center
Sun 08:22:20 PM 43.4286 -76.1622 70° East 145 167 9,000  Level Boston Center
Sun 08:22:32 PM 43.4392 -76.1689 335° Northwest 148 170 9,000  Level Boston Center
Sun 08:23:21 PM 43.4525 -76.1144 71° East 145 167 9,000  Level Boston Center
Sun 08:23:33 PM 43.4617 -76.1239 323° Northwest 146 168 9,000  Level Boston Center
Sun 08:24:22 PM 43.4739 -76.0689 73° East 144 166 9,000  Level Boston Center
Sun 08:24:34 PM 43.4831 -76.0772 327° Northwest 145 167 9,000  Level Boston Center
Sun 08:25:22 PM 43.4967 -76.0267 70° East 143 165 9,000  Level Boston Center
Sun 08:25:34 PM 43.5050 -76.0336 329° Northwest 142 163 9,000  Level Boston Center
Sun 08:26:36 PM 43.5267 -75.9869 57° Northeast 144 166 9,000  Level Boston Center
Sun 08:27:34 PM 43.5489 -75.9408 56° Northeast 146 168 9,000  Level Boston Center
Sun 08:28:23 PM 43.5667 -75.8914 64° Northeast 145 167 9,000  Level Boston Center
Sun 08:28:35 PM 43.5725 -75.8956 333° Northwest 146 168 9,000  Level Boston Center
Sun 08:29:25 PM 43.5906 -75.8433 64° Northeast 145 167 9,000  Level Boston Center
Sun 08:29:37 PM 43.5947 -75.8494 313° West 146 168 9,000  Level Boston Center
Sun 08:30:25 PM 43.6117 -75.7975 66° East 145 167 9,000  Level Boston Center
Sun 08:30:37 PM 43.6161 -75.8028 319° Northwest 146 168 9,000  Level Boston Center
Sun 08:31:25 PM 43.6358 -75.7467 64° Northeast 146 168 9,000  Level Boston Center
Sun 08:31:41 PM 43.6389 -75.7553 296° West 149 171 9,000  Level Boston Center
Sun 08:32:27 PM 43.6586 -75.7044 62° Northeast 144 166 9,000  Level Boston Center
Sun 08:32:42 PM 43.6619 -75.7072 329° Northwest 150 173 9,000  Level Boston Center
Sun 08:33:27 PM 43.6819 -75.6592 60° Northeast 144 166 9,000  Level Boston Center
Sun 08:33:42 PM 43.6892 -75.6522 35° Northeast 147 169 9,000  Level Boston Center
Sun 08:34:27 PM 43.7056 -75.6108 61° Northeast 144 166 9,000  Level Boston Center
Sun 08:34:43 PM 43.7114 -75.6067 27° Northeast 145 167 9,000  Level Boston Center
Sun 08:35:28 PM 43.7267 -75.5650 63° Northeast 143 165 9,000  Level Boston Center
Sun 08:35:43 PM 43.7319 -75.5592 39° Northeast 144 166 9,000  Level Boston Center
Sun 08:36:27 PM 43.7494 -75.5222 57° Northeast 146 168 9,000  Level Boston Center
Sun 08:36:45 PM 43.7544 -75.5131 53° Northeast 144 166 9,000  Level Boston Center
Sun 08:37:28 PM 43.7736 -75.4714 57° Northeast 147 169 9,000  Level Boston Center
Sun 08:37:46 PM 43.7758 -75.4697 28° Northeast 131 151 9,000  Level Boston Center
Sun 08:38:29 PM 43.7961 -75.4286 56° Northeast 144 166 9,000  Level Boston Center
Sun 08:38:47 PM 43.7981 -75.4233 63° Northeast 139 160 9,000  Level Boston Center
Sun 08:39:30 PM 43.8192 -75.3831 54° Northeast 143 165 9,000  Level Boston Center
Sun 08:39:49 PM 43.8211 -75.3750 71° East 145 167 9,000  Level Boston Center
Sun 08:40:49 PM 43.8428 -75.3303 56° Northeast 143 165 9,000  Level Boston Center
Sun 08:41:49 PM 43.8667 -75.2842 54° Northeast 144 166 9,000  Level Boston Center
Sun 08:42:51 PM 43.8900 -75.2328 58° Northeast 151 174 9,000  Level Boston Center
Sun 08:43:52 PM 43.9128 -75.1864 56° Northeast 151 174 9,000  Level Boston Center
Sun 08:44:53 PM 43.9347 -75.1394 57° Northeast 148 170 9,000  Level Boston Center
Sun 08:45:54 PM 43.9561 -75.0931 57° Northeast 145 167 9,000  Level Boston Center
Sun 08:46:54 PM 43.9778 -75.0464 57° Northeast 144 166 9,000  Level Boston Center
Sun 08:47:54 PM 43.9992 -74.9994 58° Northeast 144 166 9,000  Level Boston Center
Sun 08:48:55 PM 44.0261 -74.9422 57° Northeast 147 169 9,000  Level Boston Center
Sun 08:49:56 PM 44.0478 -74.8964 57° Northeast 144 166 9,000  Level Boston Center
Sun 08:50:59 PM 44.0697 -74.8469 58° Northeast 148 170 9,000  Level Boston Center
Sun 08:52:00 PM 44.0919 -74.8003 56° Northeast 147 169 9,000 49 Level Boston Center
Sun 08:53:01 PM 44.1139 -74.7514 58° Northeast 148 170 9,100  Climbing Boston Center
Sun 08:54:01 PM 44.1372 -74.7033 56° Northeast 150 173 9,000 -50 Descending Boston Center
Sun 08:55:01 PM 44.1608 -74.6553 56° Northeast 150 173 9,000  Level Boston Center
Sun 08:56:02 PM 44.1831 -74.6097 56° Northeast 145 167 9,000  Level Boston Center
Sun 08:57:02 PM 44.2047 -74.5603 59° Northeast 148 170 9,000  Level Boston Center
Sun 08:58:03 PM 44.2275 -74.5139 56° Northeast 146 168 9,000  Level Boston Center
Sun 08:59:06 PM 44.2481 -74.4644 60° Northeast 147 169 9,000  Level Boston Center
Sun 09:00:07 PM 44.2697 -74.4172 57° Northeast 145 167 9,000  Level Boston Center
Sun 09:01:08 PM 44.2914 -74.3686 58° Northeast 147 169 9,000  Level Boston Center
Sun 09:02:09 PM 44.3147 -74.3236 54° Northeast 145 167 9,000  Level Boston Center
Sun 09:03:10 PM 44.3411 -74.2678 57° Northeast 145 167 9,000  Level Boston Center
Sun 09:04:11 PM 44.3631 -74.2211 57° Northeast 145 167 9,000  Level Boston Center
Sun 09:05:12 PM 44.3861 -74.1742 55° Northeast 146 168 9,000  Level Boston Center
Sun 09:06:10 PM 44.4078 -74.1264 58° Northeast 146 168 9,000  Level Boston Center
Sun 09:07:12 PM 44.4286 -74.0861 54° Northeast 146 168 9,000  Level Boston Center
Sun 09:08:11 PM 44.4564 -74.0303 55° Northeast 146 168 9,000  Level Boston Center
Sun 09:09:15 PM 44.4792 -73.9831 56° Northeast 147 169 9,000  Level Boston Center
Sun 09:10:15 PM 44.5014 -73.9369 56° Northeast 145 167 9,000  Level Boston Center
Sun 09:11:15 PM 44.5244 -73.8900 55° Northeast 148 170 9,000  Level Boston Center
Sun 09:12:15 PM 44.5492 -73.8389 56° Northeast 147 169 9,000  Level Boston Center
Sun 09:13:19 PM 44.5719 -73.7922 56° Northeast 147 169 9,000  Level Boston Center
Sun 09:14:18 PM 44.5936 -73.7472 56° Northeast 146 168 9,000  Level Boston Center
Sun 09:15:20 PM 44.6172 -73.7011 54° Northeast 144 166 9,000  Level Boston Center
Sun 09:16:20 PM 44.6394 -73.6531 57° Northeast 146 168 9,000  Level Boston Center
Sun 09:17:22 PM 44.6625 -73.6039 57° Northeast 148 170 9,000  Level Boston Center
Sun 09:18:23 PM 44.6864 -73.5575 54° Northeast 147 169 9,000  Level Boston Center
Sun 09:19:23 PM 44.7092 -73.5100 56° Northeast 146 168 9,000  Level Boston Center
Sun 09:20:24 PM 44.7317 -73.4617 57° Northeast 147 169 9,000  Level Boston Center
Sun 09:21:23 PM 44.7547 -73.4131 56° Northeast 149 171 9,000  Level Boston Center
Sun 09:22:29 PM 44.7667 -73.3500 75° East 140 161 9,000  Level Montreal Center
Sun 09:23:29 PM 44.7833 -73.3000 65° Northeast 150 173 9,000 50 Level Montreal Center
Sun 09:24:29 PM 44.8167 -73.2500 47° Northeast 140 161 9,100  Climbing Montreal Center
Sun 09:25:29 PM 44.8333 -73.2000 65° Northeast 150 173 9,000 -50 Descending Montreal Center
Sun 09:26:29 PM 44.8667 -73.1333 55° Northeast 140 161 9,000  Level Montreal Center
Sun 09:27:29 PM 44.8833 -73.0833 65° Northeast 150 173 9,000  Level Montreal Center
Sun 09:28:29 PM 44.9167 -73.0333 47° Northeast 140 161 9,000 50 Level Montreal Center
Sun 09:29:29 PM 44.9333 -72.9833 65° Northeast 140 161 9,100 50 Climbing Montreal Center
Sun 09:30:29 PM 44.9500 -72.9667 35° Northeast 150 173 9,100  Level Montreal Center
Sun 09:31:29 PM 44.9833 -72.8833 60° Northeast 150 173 9,100  Level Montreal Center
Sun 09:32:29 PM 45.0000 -72.8500 55° Northeast 150 173 9,100  Level Montreal Center
Sun 09:33:29 PM 45.0333 -72.8000 47° Northeast 150 173 9,100  Level Montreal Center
Sun 09:34:29 PM 45.0333 -72.7500 90° East 150 173 9,100 -50 Level Montreal Center
Sun 09:35:29 PM 45.0500 -72.7000 65° Northeast 150 173 9,000 -50 Descending Montreal Center
Sun 09:36:29 PM 45.0833 -72.6500 47° Northeast 150 173 9,000  Level Montreal Center
Sun 09:37:29 PM 45.1000 -72.6000 65° Northeast 150 173 9,000  Level Montreal Center
Sun 09:38:29 PM 45.1333 -72.5500 47° Northeast 140 161 9,000  Level Montreal Center
Sun 09:39:29 PM 45.1500 -72.5000 65° Northeast 150 173 9,000  Level Montreal Center
Sun 09:40:29 PM 45.1667 -72.4500 65° Northeast 150 173 9,000  Level Montreal Center
Sun 09:41:29 PM 45.2000 -72.4333 19° North 150 173 9,000 50 Level Montreal Center
Sun 09:42:29 PM 45.2167 -72.3500 74° East 150 173 9,100  Climbing Montreal Center
Sun 09:43:29 PM 45.2500 -72.3333 19° North 140 161 9,000 -50 Descending Montreal Center
Sun 09:44:29 PM 45.2667 -72.2500 74° East 150 173 9,000  Level Montreal Center
Sun 09:45:29 PM 45.2833 -72.2333 35° Northeast 140 161 9,000  Level Montreal Center
Sun 09:46:29 PM 45.3000 -72.1500 74° East 150 173 9,000  Level Montreal Center
Sun 09:47:29 PM 45.3167 -72.1000 65° Northeast 150 173 9,000  Level Montreal Center
Sun 09:48:29 PM 45.3500 -72.0500 47° Northeast 150 173 9,000  Level Montreal Center
Sun 09:49:29 PM 45.3667 -72.0167 55° Northeast 150 173 9,000  Level Montreal Center
Sun 09:50:29 PM 45.4000 -71.9667 46° Northeast 150 173 9,000  Level Montreal Center
Sun 09:51:29 PM 45.4167 -71.9167 65° Northeast 150 173 9,000  Level Montreal Center
Sun 09:52:29 PM 45.4333 -71.8667 65° Northeast 150 173 9,000  Level Montreal Center
Sun 09:53:29 PM 45.4667 -71.8167 46° Northeast 150 173 9,000  Level Montreal Center
Sun 09:54:29 PM 45.4833 -71.7667 65° Northeast 150 173 9,000 -50 Level Montreal Center
Sun 09:55:29 PM 45.5000 -71.7167 65° Northeast 150 173 8,900 -200 Descending Montreal Center
Sun 09:56:29 PM 45.5167 -71.6667 65° Northeast 160 184 8,600 -350 Descending Montreal Center
Sun 09:57:29 PM 45.5500 -71.6167 46° Northeast 160 184 8,200 -350 Descending Montreal Center
Sun 09:58:29 PM 45.5667 -71.5667 65° Northeast 160 184 7,900 -300 Descending Montreal Center
Sun 09:59:29 PM 45.6000 -71.5167 46° Northeast 150 173 7,600 -300 Descending Montreal Center
Sun 10:00:29 PM 45.6167 -71.4333 74° East 160 184 7,300 -300 Descending Montreal Center
Sun 10:01:29 PM 45.6500 -71.3833 46° Northeast 150 173 7,000 -350 Descending Montreal Center
Sun 10:02:29 PM 45.6667 -71.3333 64° Northeast 160 184 6,600 -350 Descending Montreal Center
Sun 10:03:29 PM 45.6833 -71.2833 64° Northeast 150 173 6,300 -300 Descending Montreal Center
Sun 10:04:29 PM 45.7000 -71.2333 64° Northeast 150 173 6,000 -300 Descending Montreal Center
Sun 10:05:29 PM 45.7333 -71.1833 46° Northeast 170 196 5,700 -300 Descending Montreal Center
Sun 10:06:29 PM 45.7500 -71.1167 70° East 170 196 5,400 -300 Descending Montreal Center
Sun 10:07:29 PM 45.7833 -71.0667 46° Northeast 160 184 5,100 -200 Descending Montreal Center
Sun 10:08:29 PM 45.8167 -71.0167 46° Northeast 160 184 5,000 -50 Descending Montreal Center
Sun 10:09:29 PM 45.8333 -70.9667 64° Northeast 150 173 5,000  Level Montreal Center
Sun 10:10:29 PM 45.8500 -70.9167 64° Northeast 150 173 5,000  Level Montreal Center
Sun 10:11:29 PM 45.8667 -70.8667 64° Northeast 150 173 5,000  Level Montreal Center
Sun 10:12:29 PM 45.8833 -70.8167 64° Northeast 150 173 5,000  Level Montreal Center
Sun 10:14:00 PM 45.9384 -70.7847 22° Northeast  Level FlightAware Approximate
Sun 10:21:00 PM 46.0833 -70.7000 22° Northeast  Level FlightAware Approximate
Sun 10:22:00 PM 46.0964 -70.7147 22° Northeast  Level Estimated
Sun 10:23:00 PM 46.0964 -70.7147 22° Northeast  Level Estimated
Sun 10:24:00 PM 46.0964 -70.7147 22° Northeast  Level Estimated
Sun 10:25:00 PM 46.0964 -70.7147 22° Northeast  Level Estimated
Sun 10:26:00 PM 46.0964 -70.7147 22° Northeast  Level Estimated

Login

Don't have an account? Register now (free) for customized features, flight alerts, and more!